sensor_id;sensor_type;location;lat;lon;timestamp;temperature;humidity
12837;DHT22;6485;51.472;5.268;2022-08-05T00:00:14;19.20;99.90
12837;DHT22;6485;51.472;5.268;2022-08-05T00:02:42;19.20;99.90
12837;DHT22;6485;51.472;5.268;2022-08-05T00:05:19;19.10;99.90
12837;DHT22;6485;51.472;5.268;2022-08-05T00:08:07;19.10;99.90
12837;DHT22;6485;51.472;5.268;2022-08-05T00:10:56;19.20;99.90
12837;DHT22;6485;51.472;5.268;2022-08-05T00:13:27;19.20;99.90
12837;DHT22;6485;51.472;5.268;2022-08-05T00:16:06;19.20;99.90
12837;DHT22;6485;51.472;5.268;2022-08-05T00:18:38;19.20;99.90
12837;DHT22;6485;51.472;5.268;2022-08-05T00:21:10;19.20;99.90
12837;DHT22;6485;51.472;5.268;2022-08-05T00:23:41;19.20;99.90
12837;DHT22;6485;51.472;5.268;2022-08-05T00:26:30;19.20;99.90
12837;DHT22;6485;51.472;5.268;2022-08-05T00:28:58;19.10;99.90
12837;DHT22;6485;51.472;5.268;2022-08-05T00:31:27;19.10;99.90
12837;DHT22;6485;51.472;5.268;2022-08-05T00:34:15;19.10;99.90
12837;DHT22;6485;51.472;5.268;2022-08-05T00:37:05;19.20;99.90
12837;DHT22;6485;51.472;5.268;2022-08-05T00:39:40;19.20;99.90
12837;DHT22;6485;51.472;5.268;2022-08-05T00:42:30;19.20;99.90
12837;DHT22;6485;51.472;5.268;2022-08-05T00:44:58;19.20;99.90
12837;DHT22;6485;51.472;5.268;2022-08-05T00:47:27;19.10;99.90
12837;DHT22;6485;51.472;5.268;2022-08-05T00:50:15;19.00;99.90
12837;DHT22;6485;51.472;5.268;2022-08-05T00:52:44;19.00;99.90
12837;DHT22;6485;51.472;5.268;2022-08-05T00:55:12;19.00;99.90
12837;DHT22;6485;51.472;5.268;2022-08-05T00:57:41;19.00;99.90
12837;DHT22;6485;51.472;5.268;2022-08-05T01:00:25;19.00;99.90
12837;DHT22;6485;51.472;5.268;2022-08-05T01:02:53;18.90;99.90
12837;DHT22;6485;51.472;5.268;2022-08-05T01:05:21;19.00;99.90
12837;DHT22;6485;51.472;5.268;2022-08-05T01:07:55;19.00;99.90
12837;DHT22;6485;51.472;5.268;2022-08-05T01:10:47;19.00;99.90
12837;DHT22;6485;51.472;5.268;2022-08-05T01:13:24;19.00;99.90
12837;DHT22;6485;51.472;5.268;2022-08-05T01:16:20;19.10;99.90
12837;DHT22;6485;51.472;5.268;2022-08-05T01:18:56;19.10;99.90
12837;DHT22;6485;51.472;5.268;2022-08-05T01:21:51;19.10;99.90
12837;DHT22;6485;51.472;5.268;2022-08-05T01:24:46;19.10;99.90
12837;DHT22;6485;51.472;5.268;2022-08-05T01:27:26;19.10;99.90
12837;DHT22;6485;51.472;5.268;2022-08-05T01:30:02;19.10;99.90
12837;DHT22;6485;51.472;5.268;2022-08-05T01:32:44;19.20;99.90
12837;DHT22;6485;51.472;5.268;2022-08-05T01:35:16;19.20;99.90
12837;DHT22;6485;51.472;5.268;2022-08-05T01:38:05;19.20;99.90
12837;DHT22;6485;51.472;5.268;2022-08-05T01:40:51;19.30;99.90
12837;DHT22;6485;51.472;5.268;2022-08-05T01:43:20;19.30;99.90
12837;DHT22;6485;51.472;5.268;2022-08-05T01:45:52;19.30;99.90
12837;DHT22;6485;51.472;5.268;2022-08-05T01:48:23;19.30;99.90
12837;DHT22;6485;51.472;5.268;2022-08-05T01:50:54;19.30;99.90
12837;DHT22;6485;51.472;5.268;2022-08-05T01:53:38;19.20;99.90
12837;DHT22;6485;51.472;5.268;2022-08-05T01:56:28;19.30;99.90
12837;DHT22;6485;51.472;5.268;2022-08-05T01:59:19;19.20;99.90
12837;DHT22;6485;51.472;5.268;2022-08-05T02:01:52;19.20;99.90
12837;DHT22;6485;51.472;5.268;2022-08-05T02:04:25;19.10;99.90
12837;DHT22;6485;51.472;5.268;2022-08-05T02:06:56;19.10;99.90
12837;DHT22;6485;51.472;5.268;2022-08-05T02:09:25;19.00;99.90
12837;DHT22;6485;51.472;5.268;2022-08-05T02:12:00;18.90;99.90
12837;DHT22;6485;51.472;5.268;2022-08-05T02:14:32;18.90;99.90
12837;DHT22;6485;51.472;5.268;2022-08-05T02:17:05;18.90;99.90
12837;DHT22;6485;51.472;5.268;2022-08-05T02:19:46;18.80;99.90
12837;DHT22;6485;51.472;5.268;2022-08-05T02:22:18;18.80;99.90
12837;DHT22;6485;51.472;5.268;2022-08-05T02:24:55;18.90;99.90
12837;DHT22;6485;51.472;5.268;2022-08-05T02:27:26;18.90;99.90
12837;DHT22;6485;51.472;5.268;2022-08-05T02:30:16;18.90;99.90
12837;DHT22;6485;51.472;5.268;2022-08-05T02:32:48;18.90;99.90
12837;DHT22;6485;51.472;5.268;2022-08-05T02:35:19;19.00;99.90
12837;DHT22;6485;51.472;5.268;2022-08-05T02:38:03;19.00;99.90
12837;DHT22;6485;51.472;5.268;2022-08-05T02:40:36;19.00;99.90
12837;DHT22;6485;51.472;5.268;2022-08-05T02:43:05;19.00;99.90
12837;DHT22;6485;51.472;5.268;2022-08-05T02:45:35;19.00;99.90
12837;DHT22;6485;51.472;5.268;2022-08-05T02:48:20;19.00;99.90
12837;DHT22;6485;51.472;5.268;2022-08-05T02:50:56;18.90;99.90
12837;DHT22;6485;51.472;5.268;2022-08-05T02:53:25;18.90;99.90
12837;DHT22;6485;51.472;5.268;2022-08-05T02:56:06;18.90;99.90
12837;DHT22;6485;51.472;5.268;2022-08-05T02:58:36;18.90;99.90
12837;DHT22;6485;51.472;5.268;2022-08-05T03:01:12;18.90;99.90
12837;DHT22;6485;51.472;5.268;2022-08-05T03:03:49;18.90;99.90
12837;DHT22;6485;51.472;5.268;2022-08-05T03:06:38;18.90;99.90
12837;DHT22;6485;51.472;5.268;2022-08-05T03:09:24;18.90;99.90
12837;DHT22;6485;51.472;5.268;2022-08-05T03:12:05;18.90;99.90
12837;DHT22;6485;51.472;5.268;2022-08-05T03:14:34;18.90;99.90
12837;DHT22;6485;51.472;5.268;2022-08-05T03:17:12;18.90;99.90
12837;DHT22;6485;51.472;5.268;2022-08-05T03:19:41;18.90;99.90
12837;DHT22;6485;51.472;5.268;2022-08-05T03:22:11;18.90;99.90
12837;DHT22;6485;51.472;5.268;2022-08-05T03:24:46;18.90;99.90
12837;DHT22;6485;51.472;5.268;2022-08-05T03:27:18;18.90;99.90
12837;DHT22;6485;51.472;5.268;2022-08-05T03:29:47;18.90;99.90
12837;DHT22;6485;51.472;5.268;2022-08-05T03:32:35;18.90;99.90
12837;DHT22;6485;51.472;5.268;2022-08-05T03:35:05;18.80;99.90
12837;DHT22;6485;51.472;5.268;2022-08-05T03:37:35;18.80;99.90
12837;DHT22;6485;51.472;5.268;2022-08-05T03:40:13;18.80;99.90
12837;DHT22;6485;51.472;5.268;2022-08-05T03:42:56;18.80;99.90
12837;DHT22;6485;51.472;5.268;2022-08-05T03:45:27;18.70;99.90
12837;DHT22;6485;51.472;5.268;2022-08-05T03:48:15;18.70;99.90
12837;DHT22;6485;51.472;5.268;2022-08-05T03:50:52;18.70;99.90
12837;DHT22;6485;51.472;5.268;2022-08-05T03:53:49;18.70;99.90
12837;DHT22;6485;51.472;5.268;2022-08-05T03:56:40;18.70;99.90
12837;DHT22;6485;51.472;5.268;2022-08-05T03:59:15;18.70;99.90
12837;DHT22;6485;51.472;5.268;2022-08-05T04:01:49;18.70;99.90
12837;DHT22;6485;51.472;5.268;2022-08-05T04:04:19;18.60;99.90
12837;DHT22;6485;51.472;5.268;2022-08-05T04:06:53;18.60;99.90
12837;DHT22;6485;51.472;5.268;2022-08-05T04:09:22;18.60;99.90
12837;DHT22;6485;51.472;5.268;2022-08-05T04:11:53;18.50;99.90
12837;DHT22;6485;51.472;5.268;2022-08-05T04:14:24;18.50;99.90
12837;DHT22;6485;51.472;5.268;2022-08-05T04:16:58;18.50;99.90
12837;DHT22;6485;51.472;5.268;2022-08-05T04:19:29;18.50;99.90
12837;DHT22;6485;51.472;5.268;2022-08-05T04:21:58;18.40;99.90
12837;DHT22;6485;51.472;5.268;2022-08-05T04:24:37;18.40;99.90
12837;DHT22;6485;51.472;5.268;2022-08-05T04:27:11;18.40;99.90
12837;DHT22;6485;51.472;5.268;2022-08-05T04:29:41;18.40;99.90
12837;DHT22;6485;51.472;5.268;2022-08-05T04:32:09;18.40;99.90
12837;DHT22;6485;51.472;5.268;2022-08-05T04:34:37;18.40;99.90
12837;DHT22;6485;51.472;5.268;2022-08-05T04:37:10;18.40;99.90
12837;DHT22;6485;51.472;5.268;2022-08-05T04:39:38;18.40;99.90
12837;DHT22;6485;51.472;5.268;2022-08-05T04:42:07;18.40;99.90
12837;DHT22;6485;51.472;5.268;2022-08-05T04:44:36;18.40;99.90
12837;DHT22;6485;51.472;5.268;2022-08-05T04:47:05;18.40;99.90
12837;DHT22;6485;51.472;5.268;2022-08-05T04:49:36;18.40;99.90
12837;DHT22;6485;51.472;5.268;2022-08-05T04:52:25;18.30;99.90
12837;DHT22;6485;51.472;5.268;2022-08-05T04:54:54;18.30;99.90
12837;DHT22;6485;51.472;5.268;2022-08-05T04:57:24;18.30;99.90
12837;DHT22;6485;51.472;5.268;2022-08-05T05:00:03;18.30;99.90
12837;DHT22;6485;51.472;5.268;2022-08-05T05:02:33;18.30;99.90
12837;DHT22;6485;51.472;5.268;2022-08-05T05:05:09;18.30;99.90
12837;DHT22;6485;51.472;5.268;2022-08-05T05:07:53;18.30;99.90
12837;DHT22;6485;51.472;5.268;2022-08-05T05:10:27;18.30;99.90
12837;DHT22;6485;51.472;5.268;2022-08-05T05:12:56;18.30;99.90
12837;DHT22;6485;51.472;5.268;2022-08-05T05:15:24;18.30;99.90
12837;DHT22;6485;51.472;5.268;2022-08-05T05:18:13;18.30;99.90
12837;DHT22;6485;51.472;5.268;2022-08-05T05:20:57;18.40;99.90
12837;DHT22;6485;51.472;5.268;2022-08-05T05:23:27;18.30;99.90
12837;DHT22;6485;51.472;5.268;2022-08-05T05:26:15;18.30;99.90
12837;DHT22;6485;51.472;5.268;2022-08-05T05:28:43;18.40;99.90
12837;DHT22;6485;51.472;5.268;2022-08-05T05:31:11;18.30;99.90
12837;DHT22;6485;51.472;5.268;2022-08-05T05:33:40;18.30;99.90
12837;DHT22;6485;51.472;5.268;2022-08-05T05:36:25;18.30;99.90
12837;DHT22;6485;51.472;5.268;2022-08-05T05:38:56;18.20;99.90
12837;DHT22;6485;51.472;5.268;2022-08-05T05:41:25;18.20;99.90
12837;DHT22;6485;51.472;5.268;2022-08-05T05:44:07;18.20;99.90
12837;DHT22;6485;51.472;5.268;2022-08-05T05:46:55;18.20;99.90
12837;DHT22;6485;51.472;5.268;2022-08-05T05:49:30;18.20;99.90
12837;DHT22;6485;51.472;5.268;2022-08-05T05:51:59;18.20;99.90
12837;DHT22;6485;51.472;5.268;2022-08-05T05:54:34;18.20;99.90
12837;DHT22;6485;51.472;5.268;2022-08-05T05:57:17;18.20;99.90
12837;DHT22;6485;51.472;5.268;2022-08-05T05:59:46;18.30;99.90
12837;DHT22;6485;51.472;5.268;2022-08-05T06:02:15;18.30;99.90
12837;DHT22;6485;51.472;5.268;2022-08-05T06:05:02;18.30;99.90
12837;DHT22;6485;51.472;5.268;2022-08-05T06:07:43;18.40;99.90
12837;DHT22;6485;51.472;5.268;2022-08-05T06:10:28;18.40;99.90
12837;DHT22;6485;51.472;5.268;2022-08-05T06:13:17;18.60;99.90
12837;DHT22;6485;51.472;5.268;2022-08-05T06:15:45;18.60;99.90
12837;DHT22;6485;51.472;5.268;2022-08-05T06:18:33;18.70;99.90
12837;DHT22;6485;51.472;5.268;2022-08-05T06:21:05;18.70;99.90
12837;DHT22;6485;51.472;5.268;2022-08-05T06:23:44;18.80;99.90
12837;DHT22;6485;51.472;5.268;2022-08-05T06:26:17;18.70;99.90
12837;DHT22;6485;51.472;5.268;2022-08-05T06:28:49;18.70;99.90
12837;DHT22;6485;51.472;5.268;2022-08-05T06:31:18;18.80;99.90
12837;DHT22;6485;51.472;5.268;2022-08-05T06:33:48;18.90;99.90
12837;DHT22;6485;51.472;5.268;2022-08-05T06:36:34;19.00;99.90
12837;DHT22;6485;51.472;5.268;2022-08-05T06:39:23;19.10;99.90
12837;DHT22;6485;51.472;5.268;2022-08-05T06:41:55;19.00;99.90
12837;DHT22;6485;51.472;5.268;2022-08-05T06:44:25;19.10;99.90
12837;DHT22;6485;51.472;5.268;2022-08-05T06:46:53;19.00;99.90
12837;DHT22;6485;51.472;5.268;2022-08-05T06:49:22;19.10;99.90
12837;DHT22;6485;51.472;5.268;2022-08-05T06:52:10;19.10;99.90
12837;DHT22;6485;51.472;5.268;2022-08-05T06:54:58;19.00;99.90
12837;DHT22;6485;51.472;5.268;2022-08-05T06:57:29;19.10;99.90
12837;DHT22;6485;51.472;5.268;2022-08-05T07:00:18;19.10;99.90
12837;DHT22;6485;51.472;5.268;2022-08-05T07:02:50;19.10;99.90
12837;DHT22;6485;51.472;5.268;2022-08-05T07:05:20;19.10;99.90
12837;DHT22;6485;51.472;5.268;2022-08-05T07:08:03;19.10;99.90
12837;DHT22;6485;51.472;5.268;2022-08-05T07:10:37;19.10;99.90
12837;DHT22;6485;51.472;5.268;2022-08-05T07:13:20;19.20;99.90
12837;DHT22;6485;51.472;5.268;2022-08-05T07:16:26;19.30;99.90
12837;DHT22;6485;51.472;5.268;2022-08-05T07:19:32;19.40;99.90
12837;DHT22;6485;51.472;5.268;2022-08-05T07:22:20;19.40;99.90
12837;DHT22;6485;51.472;5.268;2022-08-05T07:24:56;19.40;99.90
12837;DHT22;6485;51.472;5.268;2022-08-05T07:27:25;19.40;99.90
12837;DHT22;6485;51.472;5.268;2022-08-05T07:30:14;19.50;99.90
12837;DHT22;6485;51.472;5.268;2022-08-05T07:32:56;19.60;99.90
12837;DHT22;6485;51.472;5.268;2022-08-05T07:35:24;19.60;99.90
12837;DHT22;6485;51.472;5.268;2022-08-05T07:38:12;19.60;99.90
12837;DHT22;6485;51.472;5.268;2022-08-05T07:41:01;19.60;99.90
12837;DHT22;6485;51.472;5.268;2022-08-05T07:43:50;19.60;99.90
12837;DHT22;6485;51.472;5.268;2022-08-05T07:46:23;19.50;99.90
12837;DHT22;6485;51.472;5.268;2022-08-05T07:48:53;19.40;99.90
12837;DHT22;6485;51.472;5.268;2022-08-05T07:51:35;19.40;99.90
12837;DHT22;6485;51.472;5.268;2022-08-05T07:54:19;19.50;99.90
12837;DHT22;6485;51.472;5.268;2022-08-05T07:56:57;19.60;99.90
12837;DHT22;6485;51.472;5.268;2022-08-05T07:59:46;19.60;99.90
12837;DHT22;6485;51.472;5.268;2022-08-05T08:02:16;19.70;99.90
12837;DHT22;6485;51.472;5.268;2022-08-05T08:04:45;19.90;99.90
12837;DHT22;6485;51.472;5.268;2022-08-05T08:07:15;20.10;99.90
12837;DHT22;6485;51.472;5.268;2022-08-05T08:09:49;20.40;99.90
12837;DHT22;6485;51.472;5.268;2022-08-05T08:12:20;20.60;91.80
12837;DHT22;6485;51.472;5.268;2022-08-05T08:15:04;20.90;51.50
12837;DHT22;6485;51.472;5.268;2022-08-05T08:17:42;21.00;26.20
12837;DHT22;6485;51.472;5.268;2022-08-05T08:20:16;21.10;12.20
12837;DHT22;6485;51.472;5.268;2022-08-05T08:23:04;21.30;1.00
12837;DHT22;6485;51.472;5.268;2022-08-05T08:25:53;21.20;1.00
12837;DHT22;6485;51.472;5.268;2022-08-05T08:28:27;21.00;1.00
12837;DHT22;6485;51.472;5.268;2022-08-05T08:31:15;20.80;1.00
12837;DHT22;6485;51.472;5.268;2022-08-05T08:33:46;20.60;18.40
12837;DHT22;6485;51.472;5.268;2022-08-05T08:36:18;20.50;11.60
12837;DHT22;6485;51.472;5.268;2022-08-05T08:39:07;20.40;20.60
12837;DHT22;6485;51.472;5.268;2022-08-05T08:41:43;20.50;19.70
12837;DHT22;6485;51.472;5.268;2022-08-05T08:44:24;20.50;1.00
12837;DHT22;6485;51.472;5.268;2022-08-05T08:47:18;20.70;3.30
12837;DHT22;6485;51.472;5.268;2022-08-05T08:50:11;21.00;7.30
12837;DHT22;6485;51.472;5.268;2022-08-05T08:53:02;21.10;1.00
12837;DHT22;6485;51.472;5.268;2022-08-05T08:55:34;21.30;1.00
12837;DHT22;6485;51.472;5.268;2022-08-05T08:58:22;21.40;1.00
12837;DHT22;6485;51.472;5.268;2022-08-05T09:01:10;21.40;1.00
12837;DHT22;6485;51.472;5.268;2022-08-05T09:03:44;21.20;1.00
12837;DHT22;6485;51.472;5.268;2022-08-05T09:06:15;21.00;1.00
12837;DHT22;6485;51.472;5.268;2022-08-05T09:08:49;21.00;1.00
12837;DHT22;6485;51.472;5.268;2022-08-05T09:11:18;20.90;1.00
12837;DHT22;6485;51.472;5.268;2022-08-05T09:14:06;20.80;1.00
12837;DHT22;6485;51.472;5.268;2022-08-05T09:16:54;21.10;1.00
12837;DHT22;6485;51.472;5.268;2022-08-05T09:19:23;21.50;1.00
12837;DHT22;6485;51.472;5.268;2022-08-05T09:22:04;21.70;1.00
12837;DHT22;6485;51.472;5.268;2022-08-05T09:24:58;21.70;99.90
12837;DHT22;6485;51.472;5.268;2022-08-05T09:27:31;21.70;99.90
12837;DHT22;6485;51.472;5.268;2022-08-05T09:30:20;21.60;28.00
12837;DHT22;6485;51.472;5.268;2022-08-05T09:32:49;21.50;1.00
12837;DHT22;6485;51.472;5.268;2022-08-05T09:35:19;21.50;99.90
12837;DHT22;6485;51.472;5.268;2022-08-05T09:37:55;21.40;1.00
12837;DHT22;6485;51.472;5.268;2022-08-05T09:40:44;21.70;1.00
12837;DHT22;6485;51.472;5.268;2022-08-05T09:43:28;22.30;1.00
12837;DHT22;6485;51.472;5.268;2022-08-05T09:46:23;22.40;1.00
12837;DHT22;6485;51.472;5.268;2022-08-05T09:48:54;22.40;99.90
12837;DHT22;6485;51.472;5.268;2022-08-05T09:51:43;22.10;1.00
12837;DHT22;6485;51.472;5.268;2022-08-05T09:54:28;22.00;1.00
12837;DHT22;6485;51.472;5.268;2022-08-05T09:56:57;21.80;99.90
12837;DHT22;6485;51.472;5.268;2022-08-05T09:59:27;21.70;99.90
12837;DHT22;6485;51.472;5.268;2022-08-05T10:02:03;21.80;99.90
12837;DHT22;6485;51.472;5.268;2022-08-05T10:04:36;21.80;99.90
12837;DHT22;6485;51.472;5.268;2022-08-05T10:07:06;21.80;99.90
12837;DHT22;6485;51.472;5.268;2022-08-05T10:09:56;21.90;99.90
12837;DHT22;6485;51.472;5.268;2022-08-05T11:11:34;22.70;1.00
12837;DHT22;6485;51.472;5.268;2022-08-05T11:14:25;22.80;1.00
12837;DHT22;6485;51.472;5.268;2022-08-05T11:17:27;22.90;1.00
12837;DHT22;6485;51.472;5.268;2022-08-05T11:20:33;23.00;1.00
12837;DHT22;6485;51.472;5.268;2022-08-05T11:23:27;23.20;1.00
12837;DHT22;6485;51.472;5.268;2022-08-05T11:26:20;23.10;1.00
12837;DHT22;6485;51.472;5.268;2022-08-05T11:29:00;23.20;1.00
12837;DHT22;6485;51.472;5.268;2022-08-05T11:31:40;23.20;1.00
12837;DHT22;6485;51.472;5.268;2022-08-05T11:34:36;23.10;1.00
12837;DHT22;6485;51.472;5.268;2022-08-05T11:37:04;23.00;1.00
12837;DHT22;6485;51.472;5.268;2022-08-05T11:39:53;22.70;1.00
12837;DHT22;6485;51.472;5.268;2022-08-05T11:42:31;22.40;1.00
12837;DHT22;6485;51.472;5.268;2022-08-05T11:45:08;22.20;1.00
12837;DHT22;6485;51.472;5.268;2022-08-05T11:47:57;22.10;1.00
12837;DHT22;6485;51.472;5.268;2022-08-05T11:50:26;22.10;1.00
12837;DHT22;6485;51.472;5.268;2022-08-05T11:52:54;22.00;1.00
12837;DHT22;6485;51.472;5.268;2022-08-05T11:55:24;21.90;1.00
12837;DHT22;6485;51.472;5.268;2022-08-05T11:58:02;21.90;22.50
12837;DHT22;6485;51.472;5.268;2022-08-05T12:00:38;22.00;53.60
12837;DHT22;6485;51.472;5.268;2022-08-05T12:03:16;22.00;1.00
12837;DHT22;6485;51.472;5.268;2022-08-05T12:05:59;22.10;1.00
12837;DHT22;6485;51.472;5.268;2022-08-05T12:08:28;22.40;1.00
12837;DHT22;6485;51.472;5.268;2022-08-05T12:10:59;22.40;1.00
12837;DHT22;6485;51.472;5.268;2022-08-05T12:13:32;22.40;1.00
12837;DHT22;6485;51.472;5.268;2022-08-05T12:16:18;22.50;1.00
12837;DHT22;6485;51.472;5.268;2022-08-05T12:18:52;22.50;1.00
12837;DHT22;6485;51.472;5.268;2022-08-05T12:21:23;22.50;1.00
12837;DHT22;6485;51.472;5.268;2022-08-05T12:23:58;22.50;1.00
12837;DHT22;6485;51.472;5.268;2022-08-05T12:26:31;22.60;1.00
12837;DHT22;6485;51.472;5.268;2022-08-05T12:29:00;22.40;1.00
12837;DHT22;6485;51.472;5.268;2022-08-05T12:31:31;22.40;1.00
12837;DHT22;6485;51.472;5.268;2022-08-05T12:34:17;22.30;1.00
12837;DHT22;6485;51.472;5.268;2022-08-05T12:36:49;22.30;1.00
12837;DHT22;6485;51.472;5.268;2022-08-05T12:39:17;22.10;1.00
12837;DHT22;6485;51.472;5.268;2022-08-05T12:41:46;21.90;1.00
12837;DHT22;6485;51.472;5.268;2022-08-05T12:44:15;21.90;1.00
12837;DHT22;6485;51.472;5.268;2022-08-05T12:47:01;22.00;1.00
12837;DHT22;6485;51.472;5.268;2022-08-05T12:49:42;22.20;1.00
12837;DHT22;6485;51.472;5.268;2022-08-05T12:52:32;22.40;1.00
12837;DHT22;6485;51.472;5.268;2022-08-05T12:55:19;22.30;1.00
12837;DHT22;6485;51.472;5.268;2022-08-05T12:57:51;22.50;1.00
12837;DHT22;6485;51.472;5.268;2022-08-05T13:00:43;22.70;1.00
12837;DHT22;6485;51.472;5.268;2022-08-05T13:03:35;22.90;1.00
12837;DHT22;6485;51.472;5.268;2022-08-05T13:06:11;22.80;1.00
12837;DHT22;6485;51.472;5.268;2022-08-05T13:08:42;22.80;1.00
12837;DHT22;6485;51.472;5.268;2022-08-05T13:11:18;22.70;1.00
12837;DHT22;6485;51.472;5.268;2022-08-05T13:14:18;22.70;1.00
12837;DHT22;6485;51.472;5.268;2022-08-05T13:17:07;22.70;1.00
12837;DHT22;6485;51.472;5.268;2022-08-05T13:19:37;22.70;1.00
12837;DHT22;6485;51.472;5.268;2022-08-05T13:22:19;22.60;1.00
12837;DHT22;6485;51.472;5.268;2022-08-05T13:24:56;22.70;1.00
12837;DHT22;6485;51.472;5.268;2022-08-05T13:27:32;22.90;1.00
12837;DHT22;6485;51.472;5.268;2022-08-05T13:30:07;22.80;1.00
12837;DHT22;6485;51.472;5.268;2022-08-05T13:32:55;22.70;1.00
12837;DHT22;6485;51.472;5.268;2022-08-05T13:35:29;22.60;1.00
12837;DHT22;6485;51.472;5.268;2022-08-05T13:38:17;22.80;1.00
12837;DHT22;6485;51.472;5.268;2022-08-05T13:41:02;22.70;1.00
12837;DHT22;6485;51.472;5.268;2022-08-05T13:43:31;22.80;1.00
12837;DHT22;6485;51.472;5.268;2022-08-05T13:46:20;22.90;1.00
12837;DHT22;6485;51.472;5.268;2022-08-05T13:49:08;22.90;1.00
12837;DHT22;6485;51.472;5.268;2022-08-05T13:51:40;23.00;1.00
12837;DHT22;6485;51.472;5.268;2022-08-05T13:54:13;22.90;1.00
12837;DHT22;6485;51.472;5.268;2022-08-05T13:56:43;22.80;1.00
12837;DHT22;6485;51.472;5.268;2022-08-05T13:59:18;22.60;1.00
12837;DHT22;6485;51.472;5.268;2022-08-05T14:01:53;22.50;1.00
12837;DHT22;6485;51.472;5.268;2022-08-05T14:04:24;22.60;1.00
12837;DHT22;6485;51.472;5.268;2022-08-05T14:07:22;22.70;1.00
12837;DHT22;6485;51.472;5.268;2022-08-05T14:10:13;22.90;1.00
12837;DHT22;6485;51.472;5.268;2022-08-05T14:12:54;22.90;1.00
12837;DHT22;6485;51.472;5.268;2022-08-05T14:15:23;23.00;1.00
12837;DHT22;6485;51.472;5.268;2022-08-05T14:18:12;23.00;1.00
12837;DHT22;6485;51.472;5.268;2022-08-05T14:20:48;23.20;1.00
12837;DHT22;6485;51.472;5.268;2022-08-05T14:23:22;23.30;1.00
12837;DHT22;6485;51.472;5.268;2022-08-05T14:25:53;23.40;1.00
12837;DHT22;6485;51.472;5.268;2022-08-05T14:28:25;23.20;1.00
12837;DHT22;6485;51.472;5.268;2022-08-05T14:31:09;23.30;1.00
12837;DHT22;6485;51.472;5.268;2022-08-05T14:33:57;23.20;1.00
12837;DHT22;6485;51.472;5.268;2022-08-05T14:36:27;22.90;1.00
12837;DHT22;6485;51.472;5.268;2022-08-05T14:38:57;22.60;1.00
12837;DHT22;6485;51.472;5.268;2022-08-05T14:41:28;22.60;1.00
12837;DHT22;6485;51.472;5.268;2022-08-05T14:43:57;22.80;1.00
12837;DHT22;6485;51.472;5.268;2022-08-05T14:46:45;22.90;1.00
12837;DHT22;6485;51.472;5.268;2022-08-05T14:49:14;22.80;1.00
12837;DHT22;6485;51.472;5.268;2022-08-05T14:51:42;22.90;1.00
12837;DHT22;6485;51.472;5.268;2022-08-05T14:54:12;22.80;1.00
12837;DHT22;6485;51.472;5.268;2022-08-05T14:56:56;22.60;1.00
12837;DHT22;6485;51.472;5.268;2022-08-05T14:59:25;22.80;1.00
12837;DHT22;6485;51.472;5.268;2022-08-05T15:02:01;22.90;1.00
12837;DHT22;6485;51.472;5.268;2022-08-05T15:04:41;22.70;1.00
12837;DHT22;6485;51.472;5.268;2022-08-05T15:07:13;22.50;1.00
12837;DHT22;6485;51.472;5.268;2022-08-05T15:10:03;22.30;1.00
12837;DHT22;6485;51.472;5.268;2022-08-05T15:12:35;22.10;1.00
12837;DHT22;6485;51.472;5.268;2022-08-05T15:15:24;22.00;1.00
12837;DHT22;6485;51.472;5.268;2022-08-05T15:18:12;22.10;1.00
12837;DHT22;6485;51.472;5.268;2022-08-05T15:20:43;22.10;1.00
12837;DHT22;6485;51.472;5.268;2022-08-05T15:23:12;22.20;1.00
12837;DHT22;6485;51.472;5.268;2022-08-05T15:25:42;22.20;1.00
12837;DHT22;6485;51.472;5.268;2022-08-05T15:28:20;22.30;1.00
12837;DHT22;6485;51.472;5.268;2022-08-05T15:30:54;22.30;1.00
12837;DHT22;6485;51.472;5.268;2022-08-05T15:33:22;22.10;1.00
12837;DHT22;6485;51.472;5.268;2022-08-05T15:36:10;22.00;1.00
12837;DHT22;6485;51.472;5.268;2022-08-05T15:38:49;21.80;1.00
12837;DHT22;6485;51.472;5.268;2022-08-05T15:41:40;21.90;1.00
12837;DHT22;6485;51.472;5.268;2022-08-05T15:44:24;22.20;1.00
12837;DHT22;6485;51.472;5.268;2022-08-05T15:46:53;22.40;1.00
12837;DHT22;6485;51.472;5.268;2022-08-05T15:49:22;22.30;1.00
12837;DHT22;6485;51.472;5.268;2022-08-05T15:52:10;22.20;1.00
12837;DHT22;6485;51.472;5.268;2022-08-05T15:54:58;22.10;1.00
12837;DHT22;6485;51.472;5.268;2022-08-05T15:57:28;22.20;1.00
12837;DHT22;6485;51.472;5.268;2022-08-05T16:00:02;22.10;1.00
12837;DHT22;6485;51.472;5.268;2022-08-05T16:02:31;21.90;1.00
12837;DHT22;6485;51.472;5.268;2022-08-05T16:05:00;21.70;1.00
12837;DHT22;6485;51.472;5.268;2022-08-05T16:07:31;21.50;1.00
12837;DHT22;6485;51.472;5.268;2022-08-05T16:09:59;21.50;1.00
12837;DHT22;6485;51.472;5.268;2022-08-05T16:12:29;21.40;1.00
12837;DHT22;6485;51.472;5.268;2022-08-05T16:14:57;21.40;1.00
12837;DHT22;6485;51.472;5.268;2022-08-05T16:17:26;21.30;1.00
12837;DHT22;6485;51.472;5.268;2022-08-05T16:19:54;21.30;1.00
12837;DHT22;6485;51.472;5.268;2022-08-05T16:22:37;21.40;1.00
12837;DHT22;6485;51.472;5.268;2022-08-05T16:25:07;21.40;1.00
12837;DHT22;6485;51.472;5.268;2022-08-05T16:27:38;21.30;1.00
12837;DHT22;6485;51.472;5.268;2022-08-05T16:30:26;21.30;1.00
12837;DHT22;6485;51.472;5.268;2022-08-05T16:32:57;21.20;1.00
12837;DHT22;6485;51.472;5.268;2022-08-05T16:35:26;21.20;1.00
12837;DHT22;6485;51.472;5.268;2022-08-05T16:38:00;21.30;1.00
12837;DHT22;6485;51.472;5.268;2022-08-05T16:40:48;21.30;1.00
12837;DHT22;6485;51.472;5.268;2022-08-05T16:43:28;21.40;1.00
12837;DHT22;6485;51.472;5.268;2022-08-05T16:45:58;21.30;1.00
12837;DHT22;6485;51.472;5.268;2022-08-05T16:48:34;21.20;1.00
12837;DHT22;6485;51.472;5.268;2022-08-05T16:51:03;21.20;1.00
12837;DHT22;6485;51.472;5.268;2022-08-05T16:53:37;21.40;1.00
12837;DHT22;6485;51.472;5.268;2022-08-05T16:56:26;21.40;1.00
12837;DHT22;6485;51.472;5.268;2022-08-05T16:58:57;21.40;1.00
12837;DHT22;6485;51.472;5.268;2022-08-05T17:01:34;21.30;1.00
12837;DHT22;6485;51.472;5.268;2022-08-05T17:04:22;21.30;1.00
12837;DHT22;6485;51.472;5.268;2022-08-05T17:06:53;21.20;1.00
12837;DHT22;6485;51.472;5.268;2022-08-05T17:09:22;21.10;1.00
12837;DHT22;6485;51.472;5.268;2022-08-05T17:11:52;21.00;1.00
12837;DHT22;6485;51.472;5.268;2022-08-05T17:14:27;20.90;1.00
12837;DHT22;6485;51.472;5.268;2022-08-05T17:17:05;20.90;1.00
12837;DHT22;6485;51.472;5.268;2022-08-05T17:19:40;20.90;1.00
12837;DHT22;6485;51.472;5.268;2022-08-05T17:22:12;20.80;1.00
12837;DHT22;6485;51.472;5.268;2022-08-05T17:24:51;20.80;1.00
12837;DHT22;6485;51.472;5.268;2022-08-05T17:27:24;20.80;1.00
12837;DHT22;6485;51.472;5.268;2022-08-05T17:30:02;20.80;1.00
12837;DHT22;6485;51.472;5.268;2022-08-05T17:32:37;20.80;1.00
12837;DHT22;6485;51.472;5.268;2022-08-05T17:35:08;20.50;1.00
12837;DHT22;6485;51.472;5.268;2022-08-05T17:37:41;20.60;1.00
12837;DHT22;6485;51.472;5.268;2022-08-05T17:40:15;20.50;1.00
12837;DHT22;6485;51.472;5.268;2022-08-05T17:42:48;20.50;1.00
12837;DHT22;6485;51.472;5.268;2022-08-05T17:45:22;20.40;1.00
12837;DHT22;6485;51.472;5.268;2022-08-05T17:48:04;20.30;1.00
12837;DHT22;6485;51.472;5.268;2022-08-05T17:50:33;20.30;1.00
12837;DHT22;6485;51.472;5.268;2022-08-05T17:53:02;20.20;1.00
12837;DHT22;6485;51.472;5.268;2022-08-05T17:55:32;20.10;1.00